createdAt,value
2019-04-16T00:01:51.789Z,6.50
2019-04-16T00:04:22.258Z,6.60
2019-04-16T00:07:02.577Z,6.30
2019-04-16T00:09:37.090Z,7.00
2019-04-16T00:12:08.553Z,7.33
2019-04-16T00:14:37.031Z,6.50
2019-04-16T00:17:03.919Z,6.20
2019-04-16T00:19:30.467Z,6.50
2019-04-16T00:22:12.475Z,5.93
2019-04-16T00:24:41.912Z,6.37
2019-04-16T00:27:08.444Z,7.60
2019-04-16T00:29:34.996Z,7.70
2019-04-16T00:32:01.625Z,9.77
2019-04-16T00:34:28.274Z,6.73
2019-04-16T00:36:55.540Z,6.40
2019-04-16T00:39:24.864Z,8.33
2019-04-16T00:41:51.445Z,6.13
2019-04-16T00:44:18.712Z,7.33
2019-04-16T00:46:45.233Z,11.00
2019-04-16T00:49:11.875Z,5.60
2019-04-16T00:51:38.537Z,7.17
2019-04-16T00:54:09.912Z,5.70
2019-04-16T00:56:33.404Z,6.50
2019-04-16T00:59:00.074Z,7.40
2019-04-16T01:01:27.485Z,6.40
2019-04-16T01:03:54.001Z,6.67
2019-04-16T01:06:20.455Z,6.50
2019-04-16T01:08:54.538Z,7.33
2019-04-16T01:11:15.553Z,11.80
2019-04-16T01:13:42.421Z,7.17
2019-04-16T01:16:09.191Z,8.00
2019-04-16T01:18:38.452Z,6.60
2019-04-16T01:21:04.176Z,7.40
2019-04-16T01:23:30.664Z,6.83
2019-04-16T01:25:57.414Z,8.80
2019-04-16T01:28:34.807Z,6.33
2019-04-16T01:31:19.619Z,6.47
2019-04-16T01:34:04.931Z,5.70
2019-04-16T01:36:33.606Z,8.70
2019-04-16T01:39:17.427Z,6.10
2019-04-16T01:41:36.460Z,7.17
2019-04-16T01:44:03.091Z,5.33
2019-04-16T01:46:32.515Z,7.47
2019-04-16T01:48:58.290Z,9.97
2019-04-16T01:51:25.054Z,7.00
2019-04-16T01:53:52.358Z,6.50
2019-04-16T01:56:19.720Z,7.23
2019-04-16T01:58:46.445Z,6.20
2019-04-16T02:01:13.022Z,7.47
2019-04-16T02:03:39.736Z,6.50
2019-04-16T02:06:06.387Z,5.83
2019-04-16T02:08:33.003Z,7.90
2019-04-16T02:10:59.664Z,6.00
2019-04-16T02:13:26.292Z,9.90
2019-04-16T02:15:53.625Z,6.47
2019-04-16T02:18:20.965Z,9.90
2019-04-16T02:20:47.730Z,6.23
2019-04-16T02:23:16.717Z,6.13
2019-04-16T02:25:42.737Z,5.83
2019-04-16T02:28:10.622Z,7.50
2019-04-16T02:30:39.407Z,6.10
2019-04-16T02:33:05.690Z,8.70
2019-04-16T02:35:32.361Z,6.87
2019-04-16T02:37:59.002Z,7.77
2019-04-16T02:40:25.723Z,6.63
2019-04-16T02:42:52.284Z,5.73
2019-04-16T02:45:22.457Z,7.73
2019-04-16T02:47:47.282Z,6.87
2019-04-16T02:50:15.837Z,7.90
2019-04-16T02:52:56.003Z,8.20
2019-04-16T02:55:24.634Z,6.30
2019-04-16T02:57:59.457Z,7.40
2019-04-16T03:00:29.090Z,5.40
2019-04-16T03:02:57.667Z,7.80
2019-04-16T03:05:26.568Z,7.00
2019-04-16T03:07:55.064Z,7.80
2019-04-16T03:10:21.718Z,9.00
2019-04-16T03:12:51.812Z,7.30
2019-04-16T03:15:19.498Z,6.67
2019-04-16T03:17:46.172Z,6.20
2019-04-16T03:20:16.291Z,6.77
2019-04-16T03:22:42.977Z,8.00
2019-04-16T03:25:13.633Z,9.50
2019-04-16T03:27:38.961Z,6.97
2019-04-16T03:30:06.436Z,6.93
2019-04-16T03:32:36.264Z,8.37
2019-04-16T03:35:05.311Z,7.37
2019-04-16T03:37:32.975Z,7.77
2019-04-16T03:40:14.518Z,8.60
2019-04-16T03:42:29.391Z,9.10
2019-04-16T03:44:57.013Z,8.03
2019-04-16T03:47:23.751Z,7.93
2019-04-16T03:49:50.418Z,8.00
2019-04-16T03:52:17.019Z,9.07
2019-04-16T03:54:43.785Z,10.87
2019-04-16T03:57:11.328Z,12.30
2019-04-16T03:59:40.015Z,8.60
2019-04-16T04:02:06.508Z,10.63
2019-04-16T04:04:33.290Z,8.63
2019-04-16T04:07:00.625Z,8.07
2019-04-16T04:09:29.091Z,7.90
2019-04-16T04:11:56.124Z,6.60
2019-04-16T04:14:23.598Z,8.97
2019-04-16T04:16:50.329Z,9.33
2019-04-16T04:19:16.997Z,8.87
2019-04-16T04:21:44.937Z,8.70
2019-04-16T04:24:11.593Z,8.23
2019-04-16T04:26:40.937Z,7.17
2019-04-16T04:29:06.540Z,7.93
2019-04-16T04:31:34.745Z,10.33
2019-04-16T04:34:01.321Z,7.90
2019-04-16T04:36:28.401Z,7.00
2019-04-16T04:38:55.098Z,10.60
2019-04-16T04:41:24.297Z,9.37
2019-04-16T04:43:51.096Z,8.43
2019-04-16T04:46:17.633Z,8.53
2019-04-16T04:48:44.165Z,7.87
2019-04-16T04:51:10.769Z,9.17
2019-04-16T04:53:37.412Z,9.60
2019-04-16T04:56:04.392Z,9.10
2019-04-16T04:58:33.762Z,9.27
2019-04-16T05:00:59.402Z,8.53
2019-04-16T05:03:47.401Z,10.10
2019-04-16T05:06:16.835Z,7.10
2019-04-16T05:08:43.358Z,10.10
2019-04-16T05:11:12.535Z,11.47
2019-04-16T05:13:38.368Z,14.37
2019-04-16T05:16:07.025Z,10.20
2019-04-16T05:18:33.589Z,9.27
2019-04-16T05:21:01.056Z,8.70
2019-04-16T05:23:27.785Z,9.20
2019-04-16T05:25:54.549Z,9.53
2019-04-16T05:28:21.106Z,12.60
2019-04-16T05:30:51.758Z,6.93
2019-04-16T05:33:17.709Z,11.20
2019-04-16T05:35:45.959Z,9.40
2019-04-16T05:38:13.004Z,11.80
2019-04-16T05:40:41.282Z,8.10
2019-04-16T05:43:07.813Z,8.53
2019-04-16T05:45:37.053Z,10.93
2019-04-16T05:48:02.811Z,7.10
2019-04-16T05:50:29.958Z,9.30
2019-04-16T05:52:56.737Z,10.60
2019-04-16T05:55:25.209Z,7.30
2019-04-16T05:57:57.938Z,8.97
2019-04-16T06:00:23.609Z,11.20
2019-04-16T06:02:50.812Z,9.07
2019-04-16T06:05:17.508Z,9.40
2019-04-16T06:07:44.045Z,8.73
2019-04-16T06:10:17.091Z,8.93
2019-04-16T06:12:47.535Z,9.23
2019-04-16T06:15:35.759Z,8.77
2019-04-16T06:18:11.413Z,7.67
2019-04-16T06:20:45.841Z,9.70
2019-04-16T06:23:16.300Z,10.10
2019-04-16T06:25:50.692Z,8.00
2019-04-16T06:28:19.142Z,7.27
2019-04-16T06:30:56.625Z,8.27
2019-04-16T06:33:43.421Z,7.77
2019-04-16T06:36:15.041Z,7.53
2019-04-16T06:38:45.173Z,7.93
2019-04-16T06:41:16.180Z,9.43
2019-04-16T06:43:44.716Z,6.90
2019-04-16T06:46:19.470Z,7.53
2019-04-16T06:48:50.671Z,8.30
2019-04-16T06:51:35.767Z,7.77
2019-04-16T06:54:25.117Z,8.80
2019-04-16T06:56:56.013Z,7.53
2019-04-16T06:59:30.449Z,7.40
2019-04-16T07:01:57.922Z,10.60
2019-04-16T07:04:35.823Z,10.67
2019-04-16T07:07:13.388Z,8.10
2019-04-16T07:09:42.287Z,8.93
2019-04-16T07:12:12.881Z,10.33
2019-04-16T07:14:39.502Z,10.33
2019-04-16T07:17:06.068Z,8.53
2019-04-16T07:19:32.588Z,9.27
2019-04-16T07:21:59.258Z,8.77
2019-04-16T07:24:30.099Z,7.67
2019-04-16T07:26:56.594Z,8.40
2019-04-16T07:29:25.207Z,8.43
2019-04-16T07:31:54.391Z,11.30
2019-04-16T07:34:34.741Z,8.97
2019-04-16T07:37:09.310Z,9.33
2019-04-16T07:39:56.335Z,11.13
2019-04-16T07:42:51.681Z,8.40
2019-04-16T07:45:20.502Z,8.30
2019-04-16T07:47:51.685Z,10.70
2019-04-16T07:50:20.934Z,11.97
2019-04-16T07:52:52.307Z,9.53
2019-04-16T07:55:36.029Z,8.53
2019-04-16T07:58:03.694Z,10.00
2019-04-16T08:00:30.321Z,10.30
2019-04-16T08:02:56.786Z,8.80
2019-04-16T08:05:23.330Z,10.40
2019-04-16T08:07:52.792Z,11.73
2019-04-16T08:10:18.215Z,9.43
2019-04-16T08:12:46.798Z,8.77
2019-04-16T08:15:15.430Z,8.73
2019-04-16T08:17:42.260Z,11.53
2019-04-16T08:20:09.724Z,8.93
2019-04-16T08:22:39.773Z,9.50
2019-04-16T08:25:08.124Z,8.80
2019-04-16T08:27:34.657Z,8.60
2019-04-16T08:30:04.638Z,9.80
2019-04-16T08:32:31.149Z,9.57
2019-04-16T08:34:57.816Z,8.60
2019-04-16T08:37:24.349Z,8.93
2019-04-16T08:39:51.101Z,8.97
2019-04-16T08:42:17.747Z,10.33
2019-04-16T08:44:44.317Z,11.17
2019-04-16T08:47:11.912Z,11.10
2019-04-16T08:49:39.514Z,9.30
2019-04-16T08:52:09.885Z,9.93
2019-04-16T08:54:34.890Z,10.83
2019-04-16T08:57:01.531Z,10.97
2019-04-16T08:59:30.498Z,10.33
2019-04-16T09:01:58.245Z,10.30
2019-04-16T09:04:25.616Z,9.27
2019-04-16T09:06:52.646Z,8.93
2019-04-16T09:09:25.724Z,10.63
2019-04-16T09:11:54.130Z,9.70
2019-04-16T09:14:25.374Z,11.10
2019-04-16T09:17:04.187Z,9.97
2019-04-16T09:19:31.148Z,9.30
2019-04-16T09:21:57.890Z,11.47
2019-04-16T09:24:26.466Z,10.93
2019-04-16T09:27:12.613Z,10.00
2019-04-16T09:29:40.476Z,10.30
2019-04-16T09:32:24.616Z,12.33
2019-04-16T09:34:52.516Z,11.50
2019-04-16T09:37:21.171Z,9.83
2019-04-16T09:40:15.981Z,10.60
2019-04-16T09:42:32.193Z,9.23
2019-04-16T09:45:01.765Z,15.00
2019-04-16T09:47:29.219Z,10.63
2019-04-16T09:49:56.106Z,10.07
2019-04-16T09:52:24.069Z,11.40
2019-04-16T09:54:51.865Z,10.43
2019-04-16T09:57:19.497Z,10.97
2019-04-16T09:59:48.476Z,10.30
2019-04-16T10:02:17.417Z,11.33
2019-04-16T10:04:43.962Z,11.37
2019-04-16T10:07:10.659Z,10.73
2019-04-16T10:09:37.185Z,10.80
2019-04-16T10:12:05.059Z,9.97
2019-04-16T10:14:32.065Z,10.80
2019-04-16T10:16:58.769Z,9.83
2019-04-16T10:19:25.399Z,10.60
2019-04-16T10:21:54.478Z,11.27
2019-04-16T10:24:28.293Z,10.10
2019-04-16T10:26:59.519Z,10.37
2019-04-16T10:29:25.015Z,9.27
2019-04-16T10:31:52.992Z,12.10
2019-04-16T10:34:19.417Z,10.50
2019-04-16T10:36:45.987Z,9.70
2019-04-16T10:39:26.517Z,10.20
2019-04-16T10:41:58.617Z,10.13
2019-04-16T10:44:29.953Z,10.30
2019-04-16T10:47:16.689Z,11.40
2019-04-16T10:50:02.205Z,9.40
2019-04-16T10:52:30.845Z,12.17
2019-04-16T10:54:59.909Z,9.23
2019-04-16T10:57:42.242Z,10.03
2019-04-16T11:00:11.489Z,10.73
2019-04-16T11:02:46.390Z,8.67
2019-04-16T11:05:19.054Z,11.83
2019-04-16T11:07:51.084Z,9.80
2019-04-16T11:10:17.767Z,11.77
2019-04-16T11:12:44.550Z,10.20
2019-04-16T11:15:14.073Z,10.67
2019-04-16T11:17:41.449Z,9.10
2019-04-16T11:20:08.289Z,10.00
2019-04-16T11:22:34.910Z,9.40
2019-04-16T11:25:01.572Z,8.57
2019-04-16T11:27:28.133Z,10.40
2019-04-16T11:29:54.786Z,10.63
2019-04-16T11:32:30.542Z,9.07
2019-04-16T11:34:57.163Z,8.87
2019-04-16T11:37:23.853Z,8.50
2019-04-16T11:39:51.465Z,8.60
2019-04-16T11:42:18.144Z,9.40
2019-04-16T11:44:44.775Z,9.17
2019-04-16T11:47:11.872Z,9.37
2019-04-16T11:49:38.392Z,10.10
2019-04-16T11:52:05.191Z,9.97
2019-04-16T11:54:32.026Z,10.00
2019-04-16T11:56:59.444Z,7.93
2019-04-16T11:59:26.793Z,9.10
2019-04-16T12:02:04.689Z,8.33
2019-04-16T12:04:45.247Z,7.77
2019-04-16T12:07:19.757Z,8.33
2019-04-16T12:09:57.325Z,9.10
2019-04-16T12:12:42.485Z,8.83
2019-04-16T12:15:17.060Z,8.47
2019-04-16T12:18:04.042Z,8.00
2019-04-16T12:20:44.739Z,8.50
2019-04-16T12:23:19.410Z,7.60
2019-04-16T12:25:56.946Z,9.13
2019-04-16T12:28:43.327Z,7.73
2019-04-16T12:31:17.999Z,10.33
2019-04-16T12:34:01.863Z,9.07
2019-04-16T12:36:30.582Z,8.53
2019-04-16T12:38:59.025Z,9.47
2019-04-16T12:41:43.933Z,8.30
2019-04-16T12:44:44.129Z,8.43
2019-04-16T12:47:02.028Z,8.17
2019-04-16T12:49:47.086Z,7.23
2019-04-16T12:52:32.143Z,7.93
2019-04-16T12:55:12.803Z,7.90
2019-04-16T12:57:53.615Z,9.00
2019-04-16T13:00:28.706Z,7.73
2019-04-16T13:03:10.785Z,7.20
2019-04-16T13:05:44.540Z,7.33
2019-04-16T13:08:18.556Z,6.50
2019-04-16T13:11:08.367Z,7.93
2019-04-16T13:13:38.588Z,6.73
2019-04-16T13:16:10.251Z,9.57
2019-04-16T13:18:41.666Z,7.50
2019-04-16T13:21:12.907Z,7.43
2019-04-16T13:23:41.316Z,7.27
2019-04-16T13:26:26.474Z,6.87
2019-04-16T13:28:55.423Z,7.63
2019-04-16T13:31:21.660Z,7.57
2019-04-16T13:33:50.827Z,6.47
2019-04-16T13:36:16.607Z,6.87
2019-04-16T13:38:47.945Z,7.23
2019-04-16T13:41:14.526Z,8.50
2019-04-16T13:43:43.230Z,6.03
2019-04-16T13:46:10.058Z,6.47
2019-04-16T13:48:42.273Z,5.87
2019-04-16T13:51:12.667Z,5.60
2019-04-16T13:53:48.739Z,7.33
2019-04-16T13:56:26.219Z,6.93
2019-04-16T13:59:10.478Z,6.03
2019-04-16T14:01:46.014Z,5.27
2019-04-16T14:04:12.937Z,6.00
2019-04-16T14:06:39.530Z,7.30
2019-04-16T14:09:07.265Z,5.83
2019-04-16T14:11:34.265Z,6.03
2019-04-16T14:14:00.826Z,5.70
2019-04-16T14:16:27.423Z,6.30
2019-04-16T14:18:54.088Z,11.37
2019-04-16T14:21:20.624Z,6.30
2019-04-16T14:23:47.292Z,6.23
2019-04-16T14:26:13.826Z,6.23
2019-04-16T14:28:51.758Z,7.80
2019-04-16T14:31:08.786Z,6.33
2019-04-16T14:33:40.266Z,5.93
2019-04-16T14:36:07.603Z,6.33
2019-04-16T14:38:45.620Z,8.60
2019-04-16T14:41:15.928Z,7.70
2019-04-16T14:43:45.312Z,6.00
2019-04-16T14:46:12.001Z,6.37
2019-04-16T14:48:42.515Z,6.13
2019-04-16T14:51:07.281Z,5.40
2019-04-16T14:53:38.171Z,5.90
2019-04-16T14:56:12.482Z,6.13
2019-04-16T14:58:40.918Z,5.83
2019-04-16T15:01:09.509Z,5.57
2019-04-16T15:03:38.143Z,8.33
2019-04-16T15:06:12.161Z,6.30
2019-04-16T15:08:49.345Z,5.80
2019-04-16T15:11:20.391Z,5.40
2019-04-16T15:13:48.962Z,6.33
2019-04-16T15:16:32.575Z,5.73
2019-04-16T15:19:17.729Z,6.10
2019-04-16T15:22:02.886Z,5.77
2019-04-16T15:24:31.618Z,6.90
2019-04-16T15:27:16.839Z,5.90
2019-04-16T15:29:52.534Z,6.33
2019-04-16T15:32:42.465Z,5.67
2019-04-16T15:35:14.094Z,6.27
2019-04-16T15:37:45.046Z,6.07
2019-04-16T15:40:28.914Z,5.73
2019-04-16T15:43:03.451Z,5.63
2019-04-16T15:45:34.734Z,7.33
2019-04-16T15:48:07.629Z,6.80
2019-04-16T15:50:38.610Z,6.00
2019-04-16T15:53:07.151Z,6.17
2019-04-16T15:55:54.037Z,5.93
2019-04-16T15:58:22.622Z,6.27
2019-04-16T16:00:53.589Z,5.97
2019-04-16T16:03:22.058Z,6.10
2019-04-16T16:05:53.720Z,6.23
2019-04-16T16:08:30.468Z,6.10
2019-04-16T16:10:58.403Z,5.87
2019-04-16T16:13:26.436Z,6.30
2019-04-16T16:15:53.436Z,5.13
2019-04-16T16:18:20.205Z,5.40
2019-04-16T16:20:46.791Z,6.17
2019-04-16T16:23:13.422Z,6.50
2019-04-16T16:25:42.054Z,5.87
2019-04-16T16:28:08.619Z,6.27
2019-04-16T16:30:35.199Z,6.17
2019-04-16T16:33:03.231Z,5.60
2019-04-16T16:35:30.109Z,6.17
2019-04-16T16:37:56.803Z,6.03
2019-04-16T16:40:23.334Z,6.77
2019-04-16T16:42:49.901Z,6.10
2019-04-16T16:45:16.630Z,6.50
2019-04-16T16:47:43.308Z,6.17
2019-04-16T16:50:11.970Z,7.17
2019-04-16T16:52:49.826Z,6.80
2019-04-16T16:55:16.883Z,7.07
2019-04-16T16:57:51.169Z,6.77
2019-04-16T17:00:35.113Z,7.33
2019-04-16T17:03:08.427Z,7.03
2019-04-16T17:05:39.909Z,6.87
2019-04-16T17:08:06.552Z,7.97
2019-04-16T17:10:33.185Z,7.63
2019-04-16T17:12:59.944Z,8.07
2019-04-16T17:15:26.494Z,7.03
2019-04-16T17:17:53.175Z,6.50
2019-04-16T17:20:19.791Z,7.67
2019-04-16T17:22:46.402Z,7.00
2019-04-16T17:25:13.097Z,7.80
2019-04-16T17:27:51.293Z,7.37
2019-04-16T17:30:08.296Z,7.10
2019-04-16T17:32:34.868Z,6.90
2019-04-16T17:35:01.633Z,8.30
2019-04-16T17:37:28.891Z,8.60
2019-04-16T17:39:57.577Z,7.77
2019-04-16T17:42:26.103Z,7.60
2019-04-16T17:44:54.582Z,7.70
2019-04-16T17:47:32.072Z,7.83
2019-04-16T17:49:53.319Z,7.53
2019-04-16T17:52:24.636Z,7.57
2019-04-16T17:54:55.633Z,8.10
2019-04-16T17:57:42.739Z,7.60
2019-04-16T18:00:29.074Z,7.30
2019-04-16T18:03:14.336Z,6.70
2019-04-16T18:05:45.787Z,7.60
2019-04-16T18:08:14.320Z,6.67
2019-04-16T18:11:01.038Z,7.80
2019-04-16T18:13:35.474Z,6.07
2019-04-16T18:16:10.082Z,6.90
2019-04-16T18:18:38.659Z,6.77
2019-04-16T18:21:19.653Z,6.93
2019-04-16T18:24:03.164Z,9.20
2019-04-16T18:26:31.742Z,6.93
2019-04-16T18:29:16.549Z,6.47
2019-04-16T18:31:45.106Z,6.33
2019-04-16T18:34:16.394Z,6.87
2019-04-16T18:37:01.890Z,7.90
2019-04-16T18:39:45.508Z,7.77
2019-04-16T18:42:14.096Z,7.07
2019-04-16T18:44:45.593Z,9.30
2019-04-16T18:47:26.042Z,7.30
2019-04-16T18:49:54.547Z,8.00
2019-04-16T18:52:21.197Z,7.47
2019-04-16T18:54:49.401Z,7.90
2019-04-16T18:57:16.846Z,8.40
2019-04-16T18:59:45.124Z,8.70
2019-04-16T19:02:12.378Z,8.73
2019-04-16T19:04:39.129Z,8.50
2019-04-16T19:07:06.778Z,8.23
2019-04-16T19:09:34.171Z,8.00
2019-04-16T19:12:01.300Z,8.60
2019-04-16T19:14:27.960Z,8.70
2019-04-16T19:16:54.577Z,7.77
2019-04-16T19:19:22.350Z,7.60
2019-04-16T19:21:52.182Z,8.33
2019-04-16T19:24:17.999Z,9.10
2019-04-16T19:26:45.246Z,8.47
2019-04-16T19:29:14.423Z,8.80
2019-04-16T19:31:40.470Z,8.73
2019-04-16T19:34:10.155Z,8.07
2019-04-16T19:36:35.485Z,9.50
2019-04-16T19:39:05.510Z,9.60
2019-04-16T19:41:31.025Z,8.13
2019-04-16T19:43:57.563Z,7.77
2019-04-16T19:46:24.158Z,9.57
2019-04-16T19:48:50.790Z,8.67
2019-04-16T19:51:19.654Z,8.90
2019-04-16T19:53:47.705Z,8.17
2019-04-16T19:56:15.551Z,12.80
2019-04-16T19:58:44.232Z,9.40
2019-04-16T20:01:12.201Z,10.00
2019-04-16T20:03:38.844Z,8.00
2019-04-16T20:06:05.484Z,9.90
2019-04-16T20:08:36.725Z,8.37
2019-04-16T20:11:01.106Z,8.90
2019-04-16T20:13:28.937Z,9.80
2019-04-16T20:15:59.405Z,8.63
2019-04-16T20:18:28.927Z,9.57
2019-04-16T20:21:00.859Z,9.77
2019-04-16T20:23:26.090Z,8.87
2019-04-16T20:25:53.144Z,7.50
2019-04-16T20:28:20.012Z,9.30
2019-04-16T20:30:46.688Z,8.00
2019-04-16T20:33:14.916Z,8.57
2019-04-16T20:35:41.984Z,8.77
2019-04-16T20:38:08.723Z,9.03
2019-04-16T20:40:35.283Z,9.27
2019-04-16T20:43:01.857Z,9.37
2019-04-16T20:45:28.393Z,11.73
2019-04-16T20:47:54.969Z,9.00
2019-04-16T20:50:21.621Z,8.73
2019-04-16T20:52:48.412Z,8.43
2019-04-16T20:55:16.026Z,8.63
2019-04-16T20:57:43.325Z,8.60
2019-04-16T21:00:12.594Z,9.80
2019-04-16T21:02:39.219Z,9.13
2019-04-16T21:05:20.809Z,9.13
2019-04-16T21:07:34.686Z,9.50
2019-04-16T21:10:03.547Z,9.20
2019-04-16T21:12:31.011Z,10.47
2019-04-16T21:14:57.643Z,8.53
2019-04-16T21:17:24.265Z,8.67
2019-04-16T21:19:52.571Z,9.40
2019-04-16T21:22:19.177Z,8.47
2019-04-16T21:24:47.561Z,9.93
2019-04-16T21:27:14.501Z,8.97
2019-04-16T21:29:41.891Z,9.37
2019-04-16T21:32:11.067Z,9.67
2019-04-16T21:34:40.974Z,9.50
2019-04-16T21:37:10.635Z,11.30
2019-04-16T21:39:39.191Z,8.27
2019-04-16T21:42:05.755Z,9.63
2019-04-16T21:44:32.289Z,8.33
2019-04-16T21:46:59.362Z,9.40
2019-04-16T21:49:37.654Z,8.53
2019-04-16T21:52:06.614Z,9.27
2019-04-16T21:54:33.840Z,9.50
2019-04-16T21:57:00.399Z,9.30
2019-04-16T21:59:26.822Z,9.60
2019-04-16T22:01:55.143Z,10.30
2019-04-16T22:04:22.423Z,8.93
2019-04-16T22:06:52.429Z,9.30
2019-04-16T22:09:19.321Z,9.93
2019-04-16T22:11:47.566Z,10.17
2019-04-16T22:14:15.335Z,9.50
2019-04-16T22:16:41.970Z,8.90
2019-04-16T22:19:11.169Z,11.67
2019-04-16T22:21:39.661Z,8.43
2019-04-16T22:24:05.551Z,9.17
2019-04-16T22:26:35.257Z,9.33
2019-04-16T22:29:01.041Z,9.63
2019-04-16T22:31:27.686Z,8.80
2019-04-16T22:33:54.253Z,9.60
2019-04-16T22:36:20.789Z,9.33
2019-04-16T22:38:49.445Z,8.10
2019-04-16T22:41:23.588Z,9.10
2019-04-16T22:44:09.835Z,8.97
2019-04-16T22:46:38.283Z,12.83
2019-04-16T22:49:04.941Z,11.37
2019-04-16T22:51:31.565Z,10.60
2019-04-16T22:53:58.409Z,8.97
2019-04-16T22:56:28.363Z,9.40
2019-04-16T22:58:56.643Z,8.60
2019-04-16T23:01:26.234Z,9.23
2019-04-16T23:03:53.435Z,11.07
2019-04-16T23:06:22.122Z,9.13
2019-04-16T23:08:49.662Z,9.40
2019-04-16T23:11:16.433Z,9.47
2019-04-16T23:13:43.070Z,9.03
2019-04-16T23:16:09.729Z,9.17
2019-04-16T23:18:36.357Z,8.57
2019-04-16T23:21:08.840Z,10.30
2019-04-16T23:23:31.270Z,9.53
2019-04-16T23:25:59.513Z,8.50
2019-04-16T23:28:26.268Z,9.40
2019-04-16T23:30:54.133Z,10.50
2019-04-16T23:33:20.863Z,11.70
2019-04-16T23:35:47.623Z,10.90
2019-04-16T23:38:14.284Z,9.33
2019-04-16T23:40:44.078Z,9.80
2019-04-16T23:43:11.198Z,9.93
2019-04-16T23:45:40.263Z,10.37
2019-04-16T23:48:17.789Z,10.03
2019-04-16T23:50:47.953Z,9.17
2019-04-16T23:53:16.420Z,9.50
2019-04-16T23:55:53.888Z,9.97
2019-04-16T23:58:28.154Z,10.93
